sensor_id;sensor_type;location;lat;lon;timestamp;pressure;altitude;pressure_sealevel;temperature;humidity
64628;BME280;59036;50.960;0.314;2023-02-18T00:00:54;100746.20;;;6.42;100.00
64628;BME280;59036;50.960;0.314;2023-02-18T00:03:22;100742.11;;;6.80;100.00
64628;BME280;59036;50.960;0.314;2023-02-18T00:05:50;100742.22;;;6.87;100.00
64628;BME280;59036;50.960;0.314;2023-02-18T00:08:17;100739.11;;;6.29;100.00
64628;BME280;59036;50.960;0.314;2023-02-18T00:10:44;100736.98;;;6.77;100.00
64628;BME280;59036;50.960;0.314;2023-02-18T00:13:12;100733.56;;;6.87;100.00
64628;BME280;59036;50.960;0.314;2023-02-18T00:15:39;100736.15;;;6.22;100.00
64628;BME280;59036;50.960;0.314;2023-02-18T00:18:07;100740.36;;;6.08;100.00
64628;BME280;59036;50.960;0.314;2023-02-18T00:20:34;100744.06;;;5.76;100.00
64628;BME280;59036;50.960;0.314;2023-02-18T00:23:06;100747.13;;;5.50;100.00
64628;BME280;59036;50.960;0.314;2023-02-18T00:25:39;100747.88;;;6.05;100.00
64628;BME280;59036;50.960;0.314;2023-02-18T00:28:08;100752.17;;;5.66;100.00
64628;BME280;59036;50.960;0.314;2023-02-18T00:30:39;100751.25;;;5.82;100.00
64628;BME280;59036;50.960;0.314;2023-02-18T00:33:07;100752.77;;;5.74;100.00
64628;BME280;59036;50.960;0.314;2023-02-18T00:35:34;100748.17;;;5.32;100.00
64628;BME280;59036;50.960;0.314;2023-02-18T00:38:02;100743.57;;;5.51;100.00
64628;BME280;59036;50.960;0.314;2023-02-18T00:40:29;100737.67;;;5.76;100.00
64628;BME280;59036;50.960;0.314;2023-02-18T00:42:56;100735.49;;;5.91;100.00
64628;BME280;59036;50.960;0.314;2023-02-18T00:45:24;100728.19;;;5.86;100.00
64628;BME280;59036;50.960;0.314;2023-02-18T00:47:51;100732.71;;;5.73;100.00
64628;BME280;59036;50.960;0.314;2023-02-18T00:50:19;100735.18;;;5.91;100.00
64628;BME280;59036;50.960;0.314;2023-02-18T00:52:46;100724.26;;;5.94;100.00
64628;BME280;59036;50.960;0.314;2023-02-18T00:55:14;100725.78;;;5.96;100.00
64628;BME280;59036;50.960;0.314;2023-02-18T00:57:41;100721.20;;;5.45;100.00
64628;BME280;59036;50.960;0.314;2023-02-18T01:00:10;100726.06;;;5.16;100.00
64628;BME280;59036;50.960;0.314;2023-02-18T01:02:37;100723.99;;;5.45;100.00
64628;BME280;59036;50.960;0.314;2023-02-18T01:05:05;100717.38;;;5.35;100.00
64628;BME280;59036;50.960;0.314;2023-02-18T01:07:32;100720.79;;;5.41;100.00
64628;BME280;59036;50.960;0.314;2023-02-18T01:09:59;100718.70;;;5.36;100.00
64628;BME280;59036;50.960;0.314;2023-02-18T01:12:27;100716.39;;;5.59;100.00
64628;BME280;59036;50.960;0.314;2023-02-18T01:14:55;100717.12;;;5.66;100.00
64628;BME280;59036;50.960;0.314;2023-02-18T01:17:22;100712.22;;;5.70;100.00
64628;BME280;59036;50.960;0.314;2023-02-18T01:19:49;100704.58;;;5.39;100.00
64628;BME280;59036;50.960;0.314;2023-02-18T01:22:16;100707.65;;;5.73;100.00
64628;BME280;59036;50.960;0.314;2023-02-18T01:24:43;100705.75;;;5.70;100.00
64628;BME280;59036;50.960;0.314;2023-02-18T01:27:10;100698.49;;;5.95;100.00
64628;BME280;59036;50.960;0.314;2023-02-18T01:29:37;100688.13;;;5.77;100.00
64628;BME280;59036;50.960;0.314;2023-02-18T01:32:04;100702.97;;;5.56;100.00
64628;BME280;59036;50.960;0.314;2023-02-18T01:34:31;100705.08;;;6.13;100.00
64628;BME280;59036;50.960;0.314;2023-02-18T01:36:59;100701.49;;;5.82;100.00
64628;BME280;59036;50.960;0.314;2023-02-18T01:39:26;100692.88;;;5.86;100.00
64628;BME280;59036;50.960;0.314;2023-02-18T01:41:53;100693.38;;;5.59;100.00
64628;BME280;59036;50.960;0.314;2023-02-18T01:44:24;100696.62;;;6.12;100.00
64628;BME280;59036;50.960;0.314;2023-02-18T01:46:52;100693.15;;;5.97;100.00
64628;BME280;59036;50.960;0.314;2023-02-18T01:49:24;100695.71;;;5.28;100.00
64628;BME280;59036;50.960;0.314;2023-02-18T01:51:55;100696.70;;;6.29;100.00
64628;BME280;59036;50.960;0.314;2023-02-18T01:54:27;100697.18;;;5.66;100.00
64628;BME280;59036;50.960;0.314;2023-02-18T01:56:59;100701.43;;;6.10;100.00
64628;BME280;59036;50.960;0.314;2023-02-18T01:59:30;100697.85;;;6.15;100.00
64628;BME280;59036;50.960;0.314;2023-02-18T02:01:58;100696.37;;;6.22;100.00
64628;BME280;59036;50.960;0.314;2023-02-18T02:04:26;100696.83;;;6.34;100.00
64628;BME280;59036;50.960;0.314;2023-02-18T02:06:54;100694.31;;;5.57;100.00
64628;BME280;59036;50.960;0.314;2023-02-18T02:09:23;100699.32;;;5.47;100.00
64628;BME280;59036;50.960;0.314;2023-02-18T02:12:03;100696.66;;;5.45;100.00
64628;BME280;59036;50.960;0.314;2023-02-18T02:14:49;100694.75;;;5.74;100.00
64628;BME280;59036;50.960;0.314;2023-02-18T02:17:30;100691.10;;;5.97;100.00
64628;BME280;59036;50.960;0.314;2023-02-18T02:20:17;100688.87;;;5.38;100.00
64628;BME280;59036;50.960;0.314;2023-02-18T02:23:24;100689.55;;;5.87;100.00
64628;BME280;59036;50.960;0.314;2023-02-18T02:26:22;100684.08;;;5.86;100.00
64628;BME280;59036;50.960;0.314;2023-02-18T02:29:06;100679.68;;;5.73;100.00
64628;BME280;59036;50.960;0.314;2023-02-18T02:32:06;100681.72;;;5.39;100.00
64628;BME280;59036;50.960;0.314;2023-02-18T02:34:46;100673.23;;;6.21;100.00
64628;BME280;59036;50.960;0.314;2023-02-18T02:37:23;100671.19;;;5.90;100.00
64628;BME280;59036;50.960;0.314;2023-02-18T02:40:02;100663.76;;;5.66;100.00
64628;BME280;59036;50.960;0.314;2023-02-18T02:42:42;100664.51;;;5.58;100.00
64628;BME280;59036;50.960;0.314;2023-02-18T02:45:19;100663.75;;;5.32;100.00
64628;BME280;59036;50.960;0.314;2023-02-18T02:47:54;100669.29;;;4.94;100.00
64628;BME280;59036;50.960;0.314;2023-02-18T02:50:27;100655.70;;;5.40;100.00
64628;BME280;59036;50.960;0.314;2023-02-18T02:53:00;100653.00;;;5.40;100.00
64628;BME280;59036;50.960;0.314;2023-02-18T02:55:30;100654.72;;;5.43;100.00
64628;BME280;59036;50.960;0.314;2023-02-18T02:57:57;100646.37;;;5.17;100.00
64628;BME280;59036;50.960;0.314;2023-02-18T03:00:33;100640.24;;;4.96;100.00
64628;BME280;59036;50.960;0.314;2023-02-18T03:03:18;100639.84;;;5.69;100.00
64628;BME280;59036;50.960;0.314;2023-02-18T03:06:07;100633.69;;;5.47;100.00
64628;BME280;59036;50.960;0.314;2023-02-18T03:08:46;100632.87;;;5.78;100.00
64628;BME280;59036;50.960;0.314;2023-02-18T03:11:19;100630.71;;;5.25;100.00
64628;BME280;59036;50.960;0.314;2023-02-18T03:13:55;100628.91;;;5.21;100.00
64628;BME280;59036;50.960;0.314;2023-02-18T03:16:26;100618.92;;;5.61;100.00
64628;BME280;59036;50.960;0.314;2023-02-18T03:19:04;100617.77;;;5.94;100.00
64628;BME280;59036;50.960;0.314;2023-02-18T03:21:38;100619.76;;;5.20;100.00
64628;BME280;59036;50.960;0.314;2023-02-18T03:24:12;100621.48;;;5.30;100.00
64628;BME280;59036;50.960;0.314;2023-02-18T03:26:47;100614.82;;;5.46;100.00
64628;BME280;59036;50.960;0.314;2023-02-18T03:29:18;100611.60;;;5.05;100.00
64628;BME280;59036;50.960;0.314;2023-02-18T03:31:49;100607.46;;;5.39;100.00
64628;BME280;59036;50.960;0.314;2023-02-18T03:34:25;100608.32;;;5.98;100.00
64628;BME280;59036;50.960;0.314;2023-02-18T03:36:56;100604.02;;;6.15;100.00
64628;BME280;59036;50.960;0.314;2023-02-18T03:39:27;100604.09;;;5.27;100.00
64628;BME280;59036;50.960;0.314;2023-02-18T03:41:55;100606.01;;;5.62;100.00
64628;BME280;59036;50.960;0.314;2023-02-18T03:44:23;100605.37;;;5.68;100.00
64628;BME280;59036;50.960;0.314;2023-02-18T03:46:51;100604.52;;;5.48;100.00
64628;BME280;59036;50.960;0.314;2023-02-18T03:49:19;100605.43;;;5.99;100.00
64628;BME280;59036;50.960;0.314;2023-02-18T03:51:46;100596.85;;;5.61;100.00
64628;BME280;59036;50.960;0.314;2023-02-18T03:54:13;100601.92;;;5.82;100.00
64628;BME280;59036;50.960;0.314;2023-02-18T03:56:41;100594.45;;;5.53;100.00
64628;BME280;59036;50.960;0.314;2023-02-18T03:59:09;100596.09;;;5.21;100.00
64628;BME280;59036;50.960;0.314;2023-02-18T04:01:37;100595.08;;;5.06;100.00
64628;BME280;59036;50.960;0.314;2023-02-18T04:04:04;100595.01;;;5.69;100.00
64628;BME280;59036;50.960;0.314;2023-02-18T04:06:31;100584.61;;;5.08;100.00
64628;BME280;59036;50.960;0.314;2023-02-18T04:08:58;100578.83;;;4.98;100.00
64628;BME280;59036;50.960;0.314;2023-02-18T04:11:25;100571.66;;;5.30;100.00
64628;BME280;59036;50.960;0.314;2023-02-18T04:13:52;100575.68;;;6.05;100.00
64628;BME280;59036;50.960;0.314;2023-02-18T04:16:19;100564.46;;;5.77;100.00
64628;BME280;59036;50.960;0.314;2023-02-18T04:18:46;100571.62;;;5.98;100.00
64628;BME280;59036;50.960;0.314;2023-02-18T04:21:14;100562.11;;;6.08;100.00
64628;BME280;59036;50.960;0.314;2023-02-18T04:23:41;100557.68;;;6.16;100.00
64628;BME280;59036;50.960;0.314;2023-02-18T04:26:08;100562.92;;;6.07;100.00
64628;BME280;59036;50.960;0.314;2023-02-18T04:28:35;100554.52;;;5.89;100.00
64628;BME280;59036;50.960;0.314;2023-02-18T04:31:02;100552.97;;;6.35;100.00
64628;BME280;59036;50.960;0.314;2023-02-18T04:33:29;100558.81;;;5.47;100.00
64628;BME280;59036;50.960;0.314;2023-02-18T04:35:56;100553.37;;;5.22;100.00
64628;BME280;59036;50.960;0.314;2023-02-18T04:38:23;100555.09;;;5.13;100.00
64628;BME280;59036;50.960;0.314;2023-02-18T04:40:50;100558.30;;;4.96;100.00
64628;BME280;59036;50.960;0.314;2023-02-18T04:43:17;100557.04;;;5.77;100.00
64628;BME280;59036;50.960;0.314;2023-02-18T04:45:44;100557.73;;;5.68;100.00
64628;BME280;59036;50.960;0.314;2023-02-18T04:48:11;100557.21;;;5.36;100.00
64628;BME280;59036;50.960;0.314;2023-02-18T04:50:38;100556.13;;;4.98;100.00
64628;BME280;59036;50.960;0.314;2023-02-18T04:53:06;100552.64;;;5.11;100.00
64628;BME280;59036;50.960;0.314;2023-02-18T04:55:32;100548.79;;;5.35;100.00
64628;BME280;59036;50.960;0.314;2023-02-18T04:57:59;100544.30;;;5.18;100.00
64628;BME280;59036;50.960;0.314;2023-02-18T05:00:26;100546.07;;;5.65;100.00
64628;BME280;59036;50.960;0.314;2023-02-18T05:02:53;100546.16;;;4.87;100.00
64628;BME280;59036;50.960;0.314;2023-02-18T05:05:20;100555.94;;;4.57;100.00
64628;BME280;59036;50.960;0.314;2023-02-18T05:07:48;100558.99;;;5.08;100.00
64628;BME280;59036;50.960;0.314;2023-02-18T05:10:16;100560.85;;;4.92;100.00
64628;BME280;59036;50.960;0.314;2023-02-18T05:12:44;100548.58;;;6.11;100.00
64628;BME280;59036;50.960;0.314;2023-02-18T05:15:11;100555.80;;;5.21;100.00
64628;BME280;59036;50.960;0.314;2023-02-18T05:17:38;100550.47;;;5.66;100.00
64628;BME280;59036;50.960;0.314;2023-02-18T05:20:06;100550.95;;;5.75;100.00
64628;BME280;59036;50.960;0.314;2023-02-18T05:22:34;100554.45;;;5.42;100.00
64628;BME280;59036;50.960;0.314;2023-02-18T05:25:01;100552.91;;;5.39;100.00
64628;BME280;59036;50.960;0.314;2023-02-18T05:27:29;100550.06;;;5.08;100.00
64628;BME280;59036;50.960;0.314;2023-02-18T05:29:56;100546.66;;;5.53;100.00
64628;BME280;59036;50.960;0.314;2023-02-18T05:32:23;100542.62;;;5.18;100.00
64628;BME280;59036;50.960;0.314;2023-02-18T05:34:50;100542.97;;;5.10;100.00
64628;BME280;59036;50.960;0.314;2023-02-18T05:37:17;100540.50;;;4.99;100.00
64628;BME280;59036;50.960;0.314;2023-02-18T05:39:45;100545.20;;;5.30;100.00
64628;BME280;59036;50.960;0.314;2023-02-18T05:42:11;100541.45;;;5.67;100.00
64628;BME280;59036;50.960;0.314;2023-02-18T05:44:38;100541.70;;;5.70;100.00
64628;BME280;59036;50.960;0.314;2023-02-18T05:47:07;100539.89;;;5.15;100.00
64628;BME280;59036;50.960;0.314;2023-02-18T05:49:36;100546.50;;;5.15;100.00
64628;BME280;59036;50.960;0.314;2023-02-18T05:52:04;100546.53;;;5.19;100.00
64628;BME280;59036;50.960;0.314;2023-02-18T05:54:31;100543.82;;;5.69;100.00
64628;BME280;59036;50.960;0.314;2023-02-18T05:56:59;100549.45;;;5.27;100.00
64628;BME280;59036;50.960;0.314;2023-02-18T05:59:26;100543.21;;;5.44;100.00
64628;BME280;59036;50.960;0.314;2023-02-18T06:01:54;100542.76;;;5.09;100.00
64628;BME280;59036;50.960;0.314;2023-02-18T06:04:20;100537.75;;;5.88;100.00
64628;BME280;59036;50.960;0.314;2023-02-18T06:06:48;100537.94;;;5.26;100.00
64628;BME280;59036;50.960;0.314;2023-02-18T06:09:15;100546.31;;;5.39;100.00
64628;BME280;59036;50.960;0.314;2023-02-18T06:11:42;100541.59;;;5.05;100.00
64628;BME280;59036;50.960;0.314;2023-02-18T06:14:10;100542.74;;;5.63;100.00
64628;BME280;59036;50.960;0.314;2023-02-18T06:16:38;100539.15;;;5.84;100.00
64628;BME280;59036;50.960;0.314;2023-02-18T06:19:05;100552.73;;;5.38;100.00
64628;BME280;59036;50.960;0.314;2023-02-18T06:21:33;100558.99;;;5.70;100.00
64628;BME280;59036;50.960;0.314;2023-02-18T06:24:00;100557.94;;;5.02;100.00
64628;BME280;59036;50.960;0.314;2023-02-18T06:26:27;100553.14;;;5.72;100.00
64628;BME280;59036;50.960;0.314;2023-02-18T06:28:54;100551.28;;;4.85;100.00
64628;BME280;59036;50.960;0.314;2023-02-18T06:31:21;100557.06;;;5.50;100.00
64628;BME280;59036;50.960;0.314;2023-02-18T06:33:48;100559.20;;;5.24;100.00
64628;BME280;59036;50.960;0.314;2023-02-18T06:36:16;100556.14;;;4.93;100.00
64628;BME280;59036;50.960;0.314;2023-02-18T06:38:44;100554.03;;;5.50;100.00
64628;BME280;59036;50.960;0.314;2023-02-18T06:41:13;100545.13;;;5.51;100.00
64628;BME280;59036;50.960;0.314;2023-02-18T06:43:41;100543.83;;;5.27;100.00
64628;BME280;59036;50.960;0.314;2023-02-18T06:46:08;100537.18;;;4.99;100.00
64628;BME280;59036;50.960;0.314;2023-02-18T06:48:35;100543.31;;;4.88;100.00
64628;BME280;59036;50.960;0.314;2023-02-18T06:51:02;100537.70;;;5.50;100.00
64628;BME280;59036;50.960;0.314;2023-02-18T06:53:30;100544.36;;;5.48;100.00
64628;BME280;59036;50.960;0.314;2023-02-18T06:55:57;100547.52;;;5.55;100.00
64628;BME280;59036;50.960;0.314;2023-02-18T06:58:24;100543.54;;;5.94;100.00
64628;BME280;59036;50.960;0.314;2023-02-18T07:00:52;100545.31;;;5.22;100.00
64628;BME280;59036;50.960;0.314;2023-02-18T07:03:18;100552.23;;;5.57;100.00
64628;BME280;59036;50.960;0.314;2023-02-18T07:05:45;100545.34;;;5.66;100.00
64628;BME280;59036;50.960;0.314;2023-02-18T07:08:13;100539.17;;;6.11;100.00
64628;BME280;59036;50.960;0.314;2023-02-18T07:10:40;100546.58;;;6.18;100.00
64628;BME280;59036;50.960;0.314;2023-02-18T07:13:07;100547.11;;;5.93;100.00
64628;BME280;59036;50.960;0.314;2023-02-18T07:15:34;100538.88;;;6.02;100.00
64628;BME280;59036;50.960;0.314;2023-02-18T07:18:01;100543.13;;;5.46;100.00
64628;BME280;59036;50.960;0.314;2023-02-18T07:20:28;100540.81;;;5.34;100.00
64628;BME280;59036;50.960;0.314;2023-02-18T07:22:55;100547.23;;;5.19;100.00
64628;BME280;59036;50.960;0.314;2023-02-18T07:25:23;100549.28;;;4.82;100.00
64628;BME280;59036;50.960;0.314;2023-02-18T07:27:50;100549.51;;;5.27;100.00
64628;BME280;59036;50.960;0.314;2023-02-18T07:30:18;100544.67;;;5.50;100.00
64628;BME280;59036;50.960;0.314;2023-02-18T07:32:45;100548.00;;;5.47;100.00
64628;BME280;59036;50.960;0.314;2023-02-18T07:35:14;100551.06;;;5.54;100.00
64628;BME280;59036;50.960;0.314;2023-02-18T07:37:43;100553.64;;;5.88;100.00
64628;BME280;59036;50.960;0.314;2023-02-18T07:40:13;100548.20;;;5.52;100.00
64628;BME280;59036;50.960;0.314;2023-02-18T07:42:41;100549.59;;;5.50;100.00
64628;BME280;59036;50.960;0.314;2023-02-18T07:45:08;100545.41;;;4.98;100.00
64628;BME280;59036;50.960;0.314;2023-02-18T07:47:36;100551.77;;;5.74;100.00
64628;BME280;59036;50.960;0.314;2023-02-18T07:50:04;100547.38;;;5.79;100.00
64628;BME280;59036;50.960;0.314;2023-02-18T07:52:32;100547.17;;;6.08;100.00
64628;BME280;59036;50.960;0.314;2023-02-18T07:54:59;100545.58;;;6.00;100.00
64628;BME280;59036;50.960;0.314;2023-02-18T07:57:26;100543.30;;;5.40;100.00
64628;BME280;59036;50.960;0.314;2023-02-18T07:59:53;100546.56;;;5.66;100.00
64628;BME280;59036;50.960;0.314;2023-02-18T08:02:22;100549.04;;;5.54;100.00
64628;BME280;59036;50.960;0.314;2023-02-18T08:04:49;100548.21;;;5.50;100.00
64628;BME280;59036;50.960;0.314;2023-02-18T08:07:18;100548.75;;;6.11;100.00
64628;BME280;59036;50.960;0.314;2023-02-18T08:09:47;100549.99;;;5.67;100.00
64628;BME280;59036;50.960;0.314;2023-02-18T08:12:14;100548.74;;;6.37;100.00
64628;BME280;59036;50.960;0.314;2023-02-18T08:14:42;100553.92;;;5.33;100.00
64628;BME280;59036;50.960;0.314;2023-02-18T08:17:09;100553.00;;;5.79;100.00
64628;BME280;59036;50.960;0.314;2023-02-18T08:19:36;100553.56;;;5.57;100.00
64628;BME280;59036;50.960;0.314;2023-02-18T08:22:03;100558.31;;;4.95;100.00
64628;BME280;59036;50.960;0.314;2023-02-18T08:24:30;100557.85;;;5.41;100.00
64628;BME280;59036;50.960;0.314;2023-02-18T08:26:58;100553.18;;;5.86;100.00
64628;BME280;59036;50.960;0.314;2023-02-18T08:29:25;100552.06;;;5.82;100.00
64628;BME280;59036;50.960;0.314;2023-02-18T08:31:52;100557.70;;;6.10;100.00
64628;BME280;59036;50.960;0.314;2023-02-18T08:34:19;100562.96;;;5.73;100.00
64628;BME280;59036;50.960;0.314;2023-02-18T08:36:46;100562.48;;;5.31;100.00
64628;BME280;59036;50.960;0.314;2023-02-18T08:39:13;100565.52;;;5.86;100.00
64628;BME280;59036;50.960;0.314;2023-02-18T08:41:40;100565.41;;;5.90;100.00
64628;BME280;59036;50.960;0.314;2023-02-18T08:44:07;100571.68;;;5.98;100.00
64628;BME280;59036;50.960;0.314;2023-02-18T08:46:34;100572.73;;;5.91;100.00
64628;BME280;59036;50.960;0.314;2023-02-18T08:49:03;100572.73;;;5.67;100.00
64628;BME280;59036;50.960;0.314;2023-02-18T08:51:31;100578.60;;;5.78;100.00
64628;BME280;59036;50.960;0.314;2023-02-18T08:53:58;100582.62;;;5.24;100.00
64628;BME280;59036;50.960;0.314;2023-02-18T08:56:25;100582.11;;;6.15;100.00
64628;BME280;59036;50.960;0.314;2023-02-18T08:58:52;100583.30;;;5.54;100.00
64628;BME280;59036;50.960;0.314;2023-02-18T09:01:19;100580.46;;;6.21;100.00
64628;BME280;59036;50.960;0.314;2023-02-18T09:03:47;100582.26;;;6.16;100.00
64628;BME280;59036;50.960;0.314;2023-02-18T09:06:14;100580.79;;;5.94;100.00
64628;BME280;59036;50.960;0.314;2023-02-18T09:08:42;100586.89;;;6.22;100.00
64628;BME280;59036;50.960;0.314;2023-02-18T09:11:10;100588.32;;;5.77;100.00
64628;BME280;59036;50.960;0.314;2023-02-18T09:13:37;100585.84;;;6.68;100.00
64628;BME280;59036;50.960;0.314;2023-02-18T09:16:06;100588.65;;;5.88;100.00
64628;BME280;59036;50.960;0.314;2023-02-18T09:18:35;100579.05;;;5.79;100.00
64628;BME280;59036;50.960;0.314;2023-02-18T09:21:05;100587.16;;;6.24;100.00
64628;BME280;59036;50.960;0.314;2023-02-18T09:23:33;100593.76;;;6.27;100.00
64628;BME280;59036;50.960;0.314;2023-02-18T09:26:03;100592.45;;;5.93;100.00
64628;BME280;59036;50.960;0.314;2023-02-18T09:28:30;100594.41;;;6.21;100.00
64628;BME280;59036;50.960;0.314;2023-02-18T09:30:57;100600.38;;;6.23;100.00
64628;BME280;59036;50.960;0.314;2023-02-18T09:33:28;100600.30;;;6.21;100.00
64628;BME280;59036;50.960;0.314;2023-02-18T09:35:55;100598.66;;;6.04;100.00
64628;BME280;59036;50.960;0.314;2023-02-18T09:38:23;100595.02;;;6.29;100.00
64628;BME280;59036;50.960;0.314;2023-02-18T09:40:51;100594.37;;;7.74;100.00
64628;BME280;59036;50.960;0.314;2023-02-18T09:43:25;100594.53;;;6.66;100.00
64628;BME280;59036;50.960;0.314;2023-02-18T09:45:56;100587.82;;;6.46;100.00
64628;BME280;59036;50.960;0.314;2023-02-18T09:48:26;100596.01;;;6.27;100.00
64628;BME280;59036;50.960;0.314;2023-02-18T09:50:54;100595.90;;;6.78;100.00
64628;BME280;59036;50.960;0.314;2023-02-18T09:53:23;100591.71;;;7.22;100.00
64628;BME280;59036;50.960;0.314;2023-02-18T09:55:51;100582.35;;;7.91;100.00
64628;BME280;59036;50.960;0.314;2023-02-18T09:58:21;100588.98;;;7.83;100.00
64628;BME280;59036;50.960;0.314;2023-02-18T10:00:52;100593.03;;;7.19;100.00
64628;BME280;59036;50.960;0.314;2023-02-18T10:03:23;100604.27;;;7.18;100.00
64628;BME280;59036;50.960;0.314;2023-02-18T10:05:56;100604.25;;;6.84;100.00
64628;BME280;59036;50.960;0.314;2023-02-18T10:08:26;100605.68;;;6.19;100.00
64628;BME280;59036;50.960;0.314;2023-02-18T10:10:54;100610.25;;;6.41;100.00
64628;BME280;59036;50.960;0.314;2023-02-18T10:13:23;100610.00;;;7.29;100.00
64628;BME280;59036;50.960;0.314;2023-02-18T10:15:52;100619.63;;;7.02;100.00
64628;BME280;59036;50.960;0.314;2023-02-18T10:18:25;100616.95;;;7.25;100.00
64628;BME280;59036;50.960;0.314;2023-02-18T10:21:02;100618.98;;;6.75;100.00
64628;BME280;59036;50.960;0.314;2023-02-18T10:23:30;100618.48;;;6.81;100.00
64628;BME280;59036;50.960;0.314;2023-02-18T10:26:01;100600.37;;;7.09;100.00
64628;BME280;59036;50.960;0.314;2023-02-18T10:28:31;100604.27;;;7.36;100.00
64628;BME280;59036;50.960;0.314;2023-02-18T10:31:01;100603.62;;;6.59;100.00
64628;BME280;59036;50.960;0.314;2023-02-18T10:33:33;100615.51;;;7.20;100.00
64628;BME280;59036;50.960;0.314;2023-02-18T10:36:20;100610.89;;;7.43;100.00
64628;BME280;59036;50.960;0.314;2023-02-18T10:39:02;100609.16;;;6.78;100.00
64628;BME280;59036;50.960;0.314;2023-02-18T10:41:40;100614.94;;;6.64;100.00
64628;BME280;59036;50.960;0.314;2023-02-18T10:44:19;100620.99;;;6.98;100.00
64628;BME280;59036;50.960;0.314;2023-02-18T10:46:57;100621.56;;;7.25;100.00
64628;BME280;59036;50.960;0.314;2023-02-18T10:49:41;100626.02;;;7.18;100.00
64628;BME280;59036;50.960;0.314;2023-02-18T10:52:17;100623.15;;;7.31;100.00
64628;BME280;59036;50.960;0.314;2023-02-18T10:54:51;100624.35;;;7.32;100.00
64628;BME280;59036;50.960;0.314;2023-02-18T10:57:22;100622.49;;;7.97;100.00
64628;BME280;59036;50.960;0.314;2023-02-18T11:00:00;100622.81;;;7.22;100.00
64628;BME280;59036;50.960;0.314;2023-02-18T11:02:29;100629.65;;;6.94;100.00
64628;BME280;59036;50.960;0.314;2023-02-18T11:05:11;100623.20;;;7.71;100.00
64628;BME280;59036;50.960;0.314;2023-02-18T11:07:46;100625.54;;;6.99;100.00
64628;BME280;59036;50.960;0.314;2023-02-18T11:10:18;100623.28;;;7.02;100.00
64628;BME280;59036;50.960;0.314;2023-02-18T11:12:48;100620.45;;;7.68;100.00
64628;BME280;59036;50.960;0.314;2023-02-18T11:15:19;100620.49;;;7.61;100.00
64628;BME280;59036;50.960;0.314;2023-02-18T11:17:49;100635.71;;;7.24;100.00
64628;BME280;59036;50.960;0.314;2023-02-18T11:20:26;100635.67;;;7.24;100.00
64628;BME280;59036;50.960;0.314;2023-02-18T11:22:58;100628.71;;;7.21;100.00
64628;BME280;59036;50.960;0.314;2023-02-18T11:25:27;100624.73;;;7.51;100.00
64628;BME280;59036;50.960;0.314;2023-02-18T11:27:58;100624.48;;;8.47;100.00
64628;BME280;59036;50.960;0.314;2023-02-18T11:30:30;100614.40;;;8.93;100.00
64628;BME280;59036;50.960;0.314;2023-02-18T11:33:03;100623.65;;;8.36;100.00
64628;BME280;59036;50.960;0.314;2023-02-18T11:35:33;100630.84;;;8.48;100.00
64628;BME280;59036;50.960;0.314;2023-02-18T11:38:03;100631.77;;;8.60;100.00
64628;BME280;59036;50.960;0.314;2023-02-18T11:40:42;100634.95;;;7.85;100.00
64628;BME280;59036;50.960;0.314;2023-02-18T11:43:19;100626.38;;;8.02;100.00
64628;BME280;59036;50.960;0.314;2023-02-18T11:45:46;100633.42;;;7.97;100.00
64628;BME280;59036;50.960;0.314;2023-02-18T11:48:16;100636.84;;;7.96;100.00
64628;BME280;59036;50.960;0.314;2023-02-18T11:50:44;100638.74;;;7.36;100.00
64628;BME280;59036;50.960;0.314;2023-02-18T11:53:26;100639.50;;;7.17;100.00
64628;BME280;59036;50.960;0.314;2023-02-18T11:55:55;100635.41;;;7.62;100.00
64628;BME280;59036;50.960;0.314;2023-02-18T11:58:22;100630.28;;;7.53;100.00
64628;BME280;59036;50.960;0.314;2023-02-18T12:00:53;100631.16;;;8.07;100.00
64628;BME280;59036;50.960;0.314;2023-02-18T12:03:29;100619.54;;;8.49;100.00
64628;BME280;59036;50.960;0.314;2023-02-18T12:05:59;100624.67;;;8.30;100.00
64628;BME280;59036;50.960;0.314;2023-02-18T12:08:31;100623.46;;;7.93;100.00
64628;BME280;59036;50.960;0.314;2023-02-18T12:11:03;100639.42;;;7.26;100.00
64628;BME280;59036;50.960;0.314;2023-02-18T12:13:36;100634.60;;;7.74;100.00
64628;BME280;59036;50.960;0.314;2023-02-18T12:16:13;100642.56;;;7.11;100.00
64628;BME280;59036;50.960;0.314;2023-02-18T12:18:53;100641.21;;;8.38;100.00
64628;BME280;59036;50.960;0.314;2023-02-18T12:21:29;100638.27;;;7.78;100.00
64628;BME280;59036;50.960;0.314;2023-02-18T12:24:12;100636.94;;;7.36;100.00
64628;BME280;59036;50.960;0.314;2023-02-18T12:26:50;100633.25;;;8.07;100.00
64628;BME280;59036;50.960;0.314;2023-02-18T12:29:32;100628.58;;;8.33;100.00
64628;BME280;59036;50.960;0.314;2023-02-18T12:32:12;100630.51;;;7.15;100.00
64628;BME280;59036;50.960;0.314;2023-02-18T12:34:54;100637.65;;;7.12;100.00
64628;BME280;59036;50.960;0.314;2023-02-18T12:37:39;100636.84;;;7.46;100.00
64628;BME280;59036;50.960;0.314;2023-02-18T12:40:22;100633.97;;;7.87;100.00
64628;BME280;59036;50.960;0.314;2023-02-18T12:43:02;100626.51;;;7.40;100.00
64628;BME280;59036;50.960;0.314;2023-02-18T12:45:50;100625.15;;;7.99;100.00
64628;BME280;59036;50.960;0.314;2023-02-18T12:48:35;100616.05;;;7.06;100.00
64628;BME280;59036;50.960;0.314;2023-02-18T12:51:14;100613.47;;;7.68;100.00
64628;BME280;59036;50.960;0.314;2023-02-18T12:53:52;100619.86;;;8.01;100.00
64628;BME280;59036;50.960;0.314;2023-02-18T12:56:39;100618.31;;;8.00;100.00
64628;BME280;59036;50.960;0.314;2023-02-18T12:59:19;100618.28;;;7.50;100.00
64628;BME280;59036;50.960;0.314;2023-02-18T13:01:58;100623.75;;;6.90;100.00
64628;BME280;59036;50.960;0.314;2023-02-18T13:04:38;100623.30;;;7.72;100.00
64628;BME280;59036;50.960;0.314;2023-02-18T13:07:30;100621.04;;;7.55;100.00